createdAt,value
2022-08-17T00:00:34.323Z,26.35
2022-08-17T00:03:05.363Z,26.35
2022-08-17T00:05:40.330Z,26.39
2022-08-17T00:08:07.096Z,26.11
2022-08-17T00:10:34.609Z,26.19
2022-08-17T00:13:12.471Z,25.88
2022-08-17T00:15:39.110Z,26.12
2022-08-17T00:19:01.221Z,26.15
2022-08-17T00:20:55.198Z,26.24
2022-08-17T00:23:22.427Z,26.24
2022-08-17T00:25:49.838Z,26.15
2022-08-17T00:28:17.801Z,25.99
2022-08-17T00:30:50.940Z,25.99
2022-08-17T00:33:26.935Z,25.91
2022-08-17T00:35:56.247Z,25.85
2022-08-17T00:38:24.693Z,25.85
2022-08-17T00:40:59.504Z,25.74
2022-08-17T00:43:30.469Z,25.72
2022-08-17T00:45:58.837Z,25.57
2022-08-17T00:48:29.870Z,25.28
2022-08-17T00:51:23.150Z,25.33
2022-08-17T00:54:05.209Z,25.20
2022-08-17T00:56:36.273Z,25.31
2022-08-17T00:59:06.504Z,25.27
2022-08-17T01:01:33.905Z,25.28
2022-08-17T01:04:02.512Z,25.21
2022-08-17T01:06:29.809Z,25.12
2022-08-17T01:08:59.426Z,25.19
2022-08-17T01:11:27.588Z,24.95
2022-08-17T01:13:54.259Z,25.06
2022-08-17T01:16:24.481Z,25.03
2022-08-17T01:19:00.952Z,25.06
2022-08-17T01:21:55.457Z,25.07
2022-08-17T01:24:22.174Z,24.93
2022-08-17T01:26:49.119Z,24.92
2022-08-17T01:29:15.985Z,24.95
2022-08-17T01:31:51.113Z,24.96
2022-08-17T01:34:19.428Z,24.90
2022-08-17T01:36:49.533Z,24.73
2022-08-17T01:39:28.149Z,24.85
2022-08-17T01:42:06.162Z,24.59
2022-08-17T01:44:33.361Z,24.57
2022-08-17T01:47:00.272Z,24.56
2022-08-17T01:49:27.789Z,24.57
2022-08-17T01:51:55.111Z,24.59
2022-08-17T01:54:23.804Z,24.69
2022-08-17T01:56:51.522Z,24.55
2022-08-17T01:59:19.996Z,24.56
2022-08-17T02:01:48.029Z,24.67
2022-08-17T02:04:15.415Z,24.54
2022-08-17T02:06:54.213Z,24.45
2022-08-17T02:09:29.907Z,24.49
2022-08-17T02:11:59.791Z,24.46
2022-08-17T02:14:46.435Z,24.49
2022-08-17T02:17:13.374Z,24.66
2022-08-17T02:19:40.435Z,24.70
2022-08-17T02:22:07.267Z,24.69
2022-08-17T02:24:59.992Z,24.63
2022-08-17T02:27:24.776Z,24.70
2022-08-17T02:29:51.415Z,24.74
2022-08-17T02:32:27.317Z,24.75
2022-08-17T02:34:59.577Z,24.72
2022-08-17T02:37:28.709Z,24.64
2022-08-17T02:39:59.586Z,24.49
2022-08-17T02:42:39.651Z,24.37
2022-08-17T02:45:12.201Z,24.43
2022-08-17T02:47:40.375Z,24.27
2022-08-17T02:50:09.253Z,24.42
2022-08-17T02:52:42.429Z,24.54
2022-08-17T02:55:30.773Z,24.44
2022-08-17T02:57:57.381Z,24.52
2022-08-17T03:00:36.369Z,24.44
2022-08-17T03:03:05.908Z,24.46
2022-08-17T03:05:35.448Z,24.38
2022-08-17T03:08:05.775Z,24.41
2022-08-17T03:10:33.020Z,24.49
2022-08-17T03:13:00.344Z,24.44
2022-08-17T03:15:31.540Z,24.50
2022-08-17T03:17:59.477Z,24.47
2022-08-17T03:20:28.553Z,24.44
2022-08-17T03:23:02.844Z,24.30
2022-08-17T03:25:41.096Z,24.30
2022-08-17T03:28:12.106Z,24.23
2022-08-17T03:30:40.176Z,24.20
2022-08-17T03:33:10.064Z,24.16
2022-08-17T03:35:39.613Z,24.15
2022-08-17T03:38:07.605Z,24.01
2022-08-17T03:40:56.465Z,23.86
2022-08-17T03:43:22.848Z,23.44
2022-08-17T03:46:26.879Z,22.53
2022-08-17T03:49:14.385Z,20.94
2022-08-17T03:51:59.578Z,21.08
2022-08-17T03:54:45.140Z,22.40
2022-08-17T03:57:12.461Z,21.23
2022-08-17T03:59:40.891Z,21.25
2022-08-17T04:02:31.088Z,22.13
2022-08-17T04:04:59.029Z,23.14
2022-08-17T04:07:30.022Z,23.54
2022-08-17T04:09:58.050Z,23.79
2022-08-17T04:12:25.842Z,23.94
2022-08-17T04:14:54.675Z,23.94
2022-08-17T04:17:28.216Z,23.99
2022-08-17T04:19:55.546Z,23.94
2022-08-17T04:22:30.008Z,24.00
2022-08-17T04:25:04.622Z,24.24
2022-08-17T04:27:31.373Z,24.31
2022-08-17T04:29:58.621Z,24.43
2022-08-17T04:33:04.596Z,24.36
2022-08-17T04:35:12.005Z,24.51
2022-08-17T04:37:38.820Z,24.64
2022-08-17T04:40:27.154Z,24.79
2022-08-17T04:43:14.173Z,24.41
2022-08-17T04:45:55.111Z,24.70
2022-08-17T04:48:29.573Z,24.88
2022-08-17T04:51:04.899Z,24.99
2022-08-17T04:53:31.588Z,24.99
2022-08-17T04:55:59.221Z,25.14
2022-08-17T04:58:25.952Z,25.19
2022-08-17T05:00:52.872Z,25.34
2022-08-17T05:03:19.576Z,25.42
2022-08-17T05:05:49.524Z,25.47
2022-08-17T05:08:19.395Z,25.51
2022-08-17T05:10:47.338Z,25.33
2022-08-17T05:13:17.706Z,25.59
2022-08-17T05:15:47.941Z,25.69
2022-08-17T05:18:16.480Z,25.72
2022-08-17T05:20:43.755Z,25.82
2022-08-17T05:23:15.897Z,25.88
2022-08-17T05:25:48.520Z,26.08
2022-08-17T05:28:24.161Z,26.21
2022-08-17T05:30:57.903Z,26.27
2022-08-17T05:33:29.693Z,26.34
2022-08-17T05:35:58.993Z,26.56
2022-08-17T05:38:28.805Z,26.66
2022-08-17T05:40:57.040Z,26.60
2022-08-17T05:43:29.177Z,26.62
2022-08-17T05:46:21.943Z,26.90
2022-08-17T05:49:01.654Z,26.24
2022-08-17T05:52:19.949Z,26.82
2022-08-17T05:55:07.721Z,26.89
2022-08-17T05:57:54.189Z,26.76
2022-08-17T06:00:47.890Z,26.82
2022-08-17T06:03:51.507Z,27.68
2022-08-17T06:06:36.816Z,27.76
2022-08-17T06:09:40.583Z,27.96
2022-08-17T06:12:47.752Z,27.86
2022-08-17T06:15:45.013Z,28.51
2022-08-17T06:18:15.983Z,28.53
2022-08-17T06:20:54.026Z,28.47
2022-08-17T06:23:32.839Z,27.15
2022-08-17T06:26:06.163Z,27.03
2022-08-17T06:29:08.836Z,26.06
2022-08-17T06:31:45.866Z,26.60
2022-08-17T06:34:13.206Z,27.67
2022-08-17T06:37:17.132Z,28.02
2022-08-17T06:39:53.503Z,28.95
2022-08-17T06:42:59.919Z,29.05
2022-08-17T06:45:34.721Z,29.18
2022-08-17T06:48:13.585Z,29.85
2022-08-17T06:50:49.106Z,29.71
2022-08-17T06:53:42.102Z,30.00
2022-08-17T06:56:13.773Z,29.45
2022-08-17T06:58:44.105Z,29.70
2022-08-17T07:01:17.953Z,29.40
2022-08-17T07:04:12.215Z,30.35
2022-08-17T07:07:30.212Z,30.85
2022-08-17T07:10:00.694Z,31.76
2022-08-17T07:12:39.371Z,32.15
2022-08-17T07:15:24.944Z,32.24
2022-08-17T07:17:52.221Z,32.57
2022-08-17T07:20:22.399Z,32.48
2022-08-17T07:23:19.134Z,32.79
2022-08-17T07:25:45.757Z,32.96
2022-08-17T07:28:12.985Z,33.11
2022-08-17T07:30:53.163Z,33.24
2022-08-17T07:33:29.381Z,33.34
2022-08-17T07:35:58.112Z,33.38
2022-08-17T07:38:35.544Z,33.24
2022-08-17T07:41:07.194Z,33.38
2022-08-17T07:43:48.074Z,33.60
2022-08-17T07:46:52.943Z,33.71
2022-08-17T07:49:32.518Z,33.83
2022-08-17T07:52:24.309Z,34.12
2022-08-17T07:54:58.524Z,33.60
2022-08-17T07:57:35.479Z,33.55
2022-08-17T08:00:02.043Z,33.63
2022-08-17T08:02:38.745Z,34.08
2022-08-17T08:05:46.688Z,34.10
2022-08-17T08:08:33.199Z,33.57
2022-08-17T08:11:09.333Z,33.01
2022-08-17T08:13:45.309Z,33.81
2022-08-17T08:16:17.073Z,34.10
2022-08-17T08:18:55.507Z,34.19
2022-08-17T08:21:51.511Z,34.16
2022-08-17T08:24:50.183Z,34.97
2022-08-17T08:27:48.765Z,34.29
2022-08-17T08:30:21.196Z,34.18
2022-08-17T08:32:57.618Z,34.15
2022-08-17T08:35:26.746Z,34.25
2022-08-17T08:38:28.225Z,34.43
2022-08-17T08:41:40.541Z,34.76
2022-08-17T08:45:00.602Z,35.09
2022-08-17T08:48:22.949Z,35.34
2022-08-17T08:51:08.573Z,34.94
2022-08-17T08:54:05.261Z,34.99
2022-08-17T08:57:24.175Z,34.65
2022-08-17T09:00:19.087Z,34.29
2022-08-17T09:03:32.418Z,33.83
2022-08-17T09:06:39.946Z,35.04
2022-08-17T09:09:34.288Z,34.87
2022-08-17T09:12:06.651Z,34.52
2022-08-17T09:14:49.390Z,35.31
2022-08-17T09:17:27.143Z,34.82
2022-08-17T09:20:28.298Z,33.96
2022-08-17T09:23:13.103Z,32.70
2022-08-17T09:25:51.771Z,33.23
2022-08-17T09:28:39.353Z,34.06
2022-08-17T09:31:16.716Z,34.11
2022-08-17T09:33:48.318Z,33.47
2022-08-17T09:37:00.312Z,34.76
2022-08-17T09:39:52.385Z,35.14
2022-08-17T09:42:51.206Z,34.64
2022-08-17T09:45:51.586Z,34.93
2022-08-17T09:48:50.543Z,35.44
2022-08-17T09:51:56.010Z,34.91
2022-08-17T09:54:38.990Z,35.93
2022-08-17T09:57:55.365Z,35.90
2022-08-17T10:00:27.533Z,35.48
2022-08-17T10:03:00.418Z,34.79
2022-08-17T10:05:56.843Z,33.57
2022-08-17T10:08:41.371Z,33.87
2022-08-17T10:11:56.474Z,34.93
2022-08-17T10:15:08.138Z,35.69
2022-08-17T10:18:37.926Z,34.93
2022-08-17T10:21:29.656Z,34.71
2022-08-17T10:24:36.669Z,34.13
2022-08-17T10:27:13.063Z,35.58
2022-08-17T10:29:53.740Z,36.43
2022-08-17T10:32:40.758Z,34.88
2022-08-17T10:35:30.969Z,34.43
2022-08-17T10:38:25.556Z,34.47
2022-08-17T10:41:27.203Z,35.52
2022-08-17T10:44:40.231Z,34.34
2022-08-17T10:47:14.377Z,34.75
2022-08-17T10:49:53.875Z,35.53
2022-08-17T10:52:20.863Z,35.51
2022-08-17T10:54:57.996Z,35.18
2022-08-17T10:57:34.344Z,35.57
2022-08-17T11:00:05.334Z,34.58
2022-08-17T11:02:42.527Z,35.67
2022-08-17T11:05:41.401Z,35.58
2022-08-17T11:08:43.623Z,36.83
2022-08-17T11:11:35.866Z,37.35
2022-08-17T11:14:47.248Z,37.82
2022-08-17T11:17:35.218Z,37.75
2022-08-17T11:20:41.293Z,38.33
2022-08-17T11:23:50.877Z,37.77
2022-08-17T11:26:30.506Z,37.30
2022-08-17T11:29:16.451Z,37.50
2022-08-17T11:31:58.438Z,37.66
2022-08-17T11:34:30.210Z,37.33
2022-08-17T11:37:03.760Z,36.53
2022-08-17T11:40:12.839Z,37.03
2022-08-17T11:43:25.332Z,37.46
2022-08-17T11:46:13.971Z,38.13
2022-08-17T11:49:11.469Z,37.84
2022-08-17T11:52:04.796Z,38.34
2022-08-17T11:54:33.235Z,38.11
2022-08-17T11:57:27.482Z,39.34
2022-08-17T12:00:10.942Z,39.08
2022-08-17T12:02:47.800Z,39.90
2022-08-17T12:05:16.810Z,39.02
2022-08-17T12:08:04.556Z,37.79
2022-08-17T12:10:36.909Z,37.35
2022-08-17T12:13:18.138Z,37.61
2022-08-17T12:15:53.722Z,37.40
2022-08-17T12:18:35.786Z,38.57
2022-08-17T12:21:17.644Z,38.15
2022-08-17T12:24:06.511Z,37.21
2022-08-17T12:26:36.788Z,37.42
2022-08-17T12:29:18.179Z,37.59
2022-08-17T12:32:04.425Z,36.76
2022-08-17T12:34:42.053Z,37.15
2022-08-17T12:37:21.075Z,36.97
2022-08-17T12:40:03.795Z,37.64
2022-08-17T12:42:39.253Z,38.50
2022-08-17T12:45:22.175Z,38.51
2022-08-17T12:47:49.201Z,39.77
2022-08-17T12:50:28.684Z,39.33
2022-08-17T12:53:01.682Z,37.94
2022-08-17T12:55:32.479Z,38.01
2022-08-17T12:58:02.370Z,37.62
2022-08-17T13:00:47.487Z,38.24
2022-08-17T13:03:21.965Z,38.85
2022-08-17T13:06:06.263Z,39.27
2022-08-17T13:08:43.971Z,39.85
2022-08-17T13:11:22.281Z,39.74
2022-08-17T13:13:56.074Z,39.97
2022-08-17T13:16:30.315Z,38.78
2022-08-17T13:19:40.172Z,39.28
2022-08-17T13:22:12.506Z,40.15
2022-08-17T13:24:55.028Z,40.63
2022-08-17T13:27:25.049Z,40.29
2022-08-17T13:29:57.465Z,39.21
2022-08-17T13:32:44.244Z,38.58
2022-08-17T13:35:39.342Z,39.00
2022-08-17T13:38:12.380Z,38.04
2022-08-17T13:40:50.840Z,37.59
2022-08-17T13:43:44.921Z,36.88
2022-08-17T13:46:18.381Z,36.36
2022-08-17T13:48:46.847Z,37.75
2022-08-17T13:51:22.679Z,37.42
2022-08-17T13:53:56.333Z,37.45
2022-08-17T13:57:00.841Z,38.05
2022-08-17T13:59:53.727Z,37.63
2022-08-17T14:02:23.432Z,37.38
2022-08-17T14:04:56.807Z,37.31
2022-08-17T14:07:30.139Z,36.85
2022-08-17T14:10:02.275Z,37.19
2022-08-17T14:12:33.321Z,36.95
2022-08-17T14:15:01.065Z,37.92
2022-08-17T14:17:29.556Z,37.04
2022-08-17T14:19:56.245Z,38.73
2022-08-17T14:22:33.281Z,37.57
2022-08-17T14:25:04.129Z,39.17
2022-08-17T14:27:34.041Z,39.63
2022-08-17T14:30:11.080Z,40.11
2022-08-17T14:32:41.336Z,39.16
2022-08-17T14:35:10.980Z,39.30
2022-08-17T14:37:38.729Z,39.63
2022-08-17T14:40:10.785Z,39.12
2022-08-17T14:42:40.941Z,38.69
2022-08-17T14:45:30.172Z,37.50
2022-08-17T14:47:58.495Z,38.66
2022-08-17T14:50:25.197Z,36.41
2022-08-17T14:52:55.139Z,37.07
2022-08-17T14:55:22.419Z,36.75
2022-08-17T14:57:49.133Z,36.65
2022-08-17T15:00:16.587Z,36.04
2022-08-17T15:02:48.367Z,36.14
2022-08-17T15:05:17.007Z,36.21
2022-08-17T15:07:44.535Z,36.08
2022-08-17T15:10:13.898Z,36.69
2022-08-17T15:12:41.886Z,36.75
2022-08-17T15:15:15.810Z,36.28
2022-08-17T15:17:45.891Z,36.11
2022-08-17T15:20:21.269Z,37.52
2022-08-17T15:22:55.173Z,38.29
2022-08-17T15:25:23.316Z,38.74
2022-08-17T15:27:50.284Z,39.30
2022-08-17T15:30:17.867Z,38.16
2022-08-17T15:32:50.702Z,37.03
2022-08-17T15:35:27.498Z,37.55
2022-08-17T15:38:06.103Z,37.66
2022-08-17T15:40:37.725Z,37.87
2022-08-17T15:43:15.289Z,37.49
2022-08-17T15:45:43.066Z,37.54
2022-08-17T15:48:10.742Z,37.21
2022-08-17T15:50:37.926Z,37.02
2022-08-17T15:53:05.051Z,37.11
2022-08-17T15:55:33.192Z,37.07
2022-08-17T15:58:00.788Z,36.88
2022-08-17T16:00:28.534Z,36.49
2022-08-17T16:03:14.193Z,37.88
2022-08-17T16:05:43.863Z,38.76
2022-08-17T16:08:11.139Z,39.23
2022-08-17T16:10:38.256Z,39.98
2022-08-17T16:13:05.059Z,40.54
2022-08-17T16:15:43.737Z,40.10
2022-08-17T16:18:10.400Z,39.74
2022-08-17T16:20:37.008Z,40.11
2022-08-17T16:23:05.246Z,40.46
2022-08-17T16:25:50.344Z,38.91
2022-08-17T16:28:19.957Z,38.54
2022-08-17T16:30:46.656Z,38.62
2022-08-17T16:33:13.610Z,38.85
2022-08-17T16:35:41.934Z,38.21
2022-08-17T16:38:09.589Z,38.02
2022-08-17T16:40:38.046Z,37.25
2022-08-17T16:43:12.084Z,37.67
2022-08-17T16:45:40.367Z,38.07
2022-08-17T16:48:09.308Z,38.91
2022-08-17T16:50:37.243Z,39.59
2022-08-17T16:53:17.795Z,39.69
2022-08-17T16:55:46.637Z,39.86
2022-08-17T16:58:14.175Z,40.07
2022-08-17T17:00:42.684Z,40.19
2022-08-17T17:03:20.540Z,40.36
2022-08-17T17:06:03.622Z,39.89
2022-08-17T17:09:10.862Z,40.34
2022-08-17T17:11:45.627Z,40.27
2022-08-17T17:14:35.820Z,39.48
2022-08-17T17:17:33.922Z,39.48
2022-08-17T17:20:05.877Z,39.21
2022-08-17T17:23:05.188Z,39.05
2022-08-17T17:25:50.896Z,38.13
2022-08-17T17:28:59.433Z,37.46
2022-08-17T17:31:33.639Z,37.04
2022-08-17T17:34:04.670Z,36.34
2022-08-17T17:36:52.640Z,36.48
2022-08-17T17:39:50.149Z,35.51
2022-08-17T17:42:21.899Z,35.41
2022-08-17T17:45:06.050Z,35.70
2022-08-17T17:47:33.983Z,35.17
2022-08-17T17:50:02.299Z,35.37
2022-08-17T17:52:59.350Z,35.38
2022-08-17T17:55:50.202Z,34.96
2022-08-17T17:58:44.906Z,34.02
2022-08-17T18:01:35.570Z,34.39
2022-08-17T18:04:24.580Z,34.61
2022-08-17T18:07:25.872Z,34.19
2022-08-17T18:10:04.145Z,34.54
2022-08-17T18:12:43.343Z,34.56
2022-08-17T18:15:25.713Z,34.39
2022-08-17T18:18:10.358Z,34.00
2022-08-17T18:20:53.453Z,33.85
2022-08-17T18:23:27.927Z,33.03
2022-08-17T18:25:56.128Z,33.55
2022-08-17T18:28:28.437Z,33.44
2022-08-17T18:31:22.187Z,33.15
2022-08-17T18:33:54.238Z,32.81
2022-08-17T18:36:32.139Z,32.30
2022-08-17T18:39:15.306Z,32.13
2022-08-17T18:41:46.090Z,31.66
2022-08-17T18:44:35.340Z,31.65
2022-08-17T18:47:20.486Z,31.79
2022-08-17T18:49:58.202Z,31.56
2022-08-17T18:52:31.598Z,31.56
2022-08-17T18:55:05.917Z,31.12
2022-08-17T18:57:40.503Z,31.32
2022-08-17T19:00:38.217Z,31.01
2022-08-17T19:03:18.050Z,30.84
2022-08-17T19:06:15.793Z,31.04
2022-08-17T19:08:42.879Z,31.30
2022-08-17T19:11:32.917Z,30.37
2022-08-17T19:14:13.398Z,30.79
2022-08-17T19:17:12.368Z,30.99
2022-08-17T19:20:05.192Z,31.21
2022-08-17T19:22:53.589Z,30.75
2022-08-17T19:25:30.573Z,31.48
2022-08-17T19:28:15.391Z,31.72
2022-08-17T19:31:02.824Z,31.56
2022-08-17T19:33:31.357Z,30.37
2022-08-17T19:36:26.224Z,29.43
2022-08-17T19:39:17.994Z,30.38
2022-08-17T19:41:57.200Z,29.43
2022-08-17T19:44:54.535Z,30.00
2022-08-17T19:47:54.835Z,29.44
2022-08-17T19:50:54.274Z,29.96
2022-08-17T19:54:04.785Z,29.77
2022-08-17T19:56:47.527Z,30.12
2022-08-17T19:59:46.229Z,30.71
2022-08-17T20:02:41.560Z,30.16
2022-08-17T20:05:22.793Z,30.11
2022-08-17T20:08:00.393Z,29.73
2022-08-17T20:10:48.084Z,30.12
2022-08-17T20:13:41.725Z,30.20
2022-08-17T20:16:11.031Z,29.92
2022-08-17T20:19:01.694Z,29.46
2022-08-17T20:21:38.349Z,29.93
2022-08-17T20:24:48.880Z,29.18
2022-08-17T20:27:21.493Z,29.59
2022-08-17T20:30:01.514Z,29.07
2022-08-17T20:32:52.730Z,29.08
2022-08-17T20:35:36.874Z,28.95
2022-08-17T20:38:12.179Z,28.92
2022-08-17T20:40:53.868Z,28.22
2022-08-17T20:43:46.760Z,28.45
2022-08-17T20:46:38.041Z,28.84
2022-08-17T20:49:20.039Z,28.20
2022-08-17T20:52:09.000Z,28.10
2022-08-17T20:54:44.156Z,28.26
2022-08-17T20:57:33.454Z,28.57
2022-08-17T21:00:29.253Z,28.59
2022-08-17T21:03:22.564Z,28.57
2022-08-17T21:06:17.686Z,28.02
2022-08-17T21:09:17.762Z,28.41
2022-08-17T21:12:05.649Z,28.07
2022-08-17T21:15:08.217Z,28.32
2022-08-17T21:17:48.305Z,27.70
2022-08-17T21:20:34.115Z,28.26
2022-08-17T21:23:05.267Z,28.17
2022-08-17T21:25:49.734Z,28.11
2022-08-17T21:28:20.316Z,28.04
2022-08-17T21:30:55.564Z,28.36
2022-08-17T21:33:33.943Z,28.10
2022-08-17T21:36:00.443Z,28.42
2022-08-17T21:38:56.981Z,28.51
2022-08-17T21:41:37.783Z,28.22
2022-08-17T21:44:34.424Z,28.67
2022-08-17T21:47:28.332Z,28.58
2022-08-17T21:50:12.995Z,28.60
2022-08-17T21:52:40.536Z,27.99
2022-08-17T21:55:18.095Z,28.61
2022-08-17T21:57:52.811Z,27.98
2022-08-17T22:00:35.841Z,28.54
2022-08-17T22:03:06.865Z,28.85
2022-08-17T22:05:39.539Z,28.40
2022-08-17T22:08:22.480Z,28.62
2022-08-17T22:10:51.350Z,28.42
2022-08-17T22:13:18.079Z,28.25
2022-08-17T22:16:27.855Z,28.57
2022-08-17T22:18:58.080Z,28.01
2022-08-17T22:21:25.499Z,28.01
2022-08-17T22:24:06.724Z,27.95
2022-08-17T22:27:19.524Z,28.32
2022-08-17T22:29:58.330Z,28.44
2022-08-17T22:32:41.727Z,28.36
2022-08-17T22:35:37.699Z,28.17
2022-08-17T22:38:19.419Z,28.04
2022-08-17T22:40:53.828Z,27.20
2022-08-17T22:43:26.215Z,27.64
2022-08-17T22:45:57.653Z,27.51
2022-08-17T22:48:28.601Z,28.06
2022-08-17T22:51:12.817Z,28.45
2022-08-17T22:54:09.236Z,28.28
2022-08-17T22:56:55.327Z,28.16
2022-08-17T22:59:53.871Z,28.16
2022-08-17T23:02:34.231Z,28.44
2022-08-17T23:05:12.982Z,28.59
2022-08-17T23:07:42.401Z,28.49
2022-08-17T23:10:12.170Z,28.68
2022-08-17T23:12:39.856Z,28.55
2022-08-17T23:15:19.112Z,28.30
2022-08-17T23:17:46.256Z,28.43
2022-08-17T23:20:15.788Z,28.55
2022-08-17T23:22:52.372Z,28.42
2022-08-17T23:25:27.922Z,28.19
2022-08-17T23:27:57.284Z,27.77
2022-08-17T23:30:25.478Z,27.93
2022-08-17T23:32:54.273Z,27.82
2022-08-17T23:35:38.976Z,27.43
2022-08-17T23:38:10.256Z,27.63
2022-08-17T23:40:39.710Z,27.96
2022-08-17T23:43:24.506Z,27.45
2022-08-17T23:45:55.290Z,27.50
2022-08-17T23:48:28.408Z,27.70
2022-08-17T23:51:08.447Z,27.97
2022-08-17T23:53:36.557Z,27.93
2022-08-17T23:56:09.696Z,28.09
2022-08-17T23:58:42.507Z,28.42
